sensor_id;sensor_type;location;lat;lon;timestamp;P1;durP1;ratioP1;P2;durP2;ratioP2
6642;SDS011;3357;48.050;7.800;2024-01-15T00:00:41;30.67;;;10.83;;
6642;SDS011;3357;48.050;7.800;2024-01-15T00:03:06;28.23;;;11.20;;
6642;SDS011;3357;48.050;7.800;2024-01-15T00:05:31;30.83;;;10.90;;
6642;SDS011;3357;48.050;7.800;2024-01-15T00:07:57;24.57;;;9.20;;
6642;SDS011;3357;48.050;7.800;2024-01-15T00:10:22;30.43;;;10.30;;
6642;SDS011;3357;48.050;7.800;2024-01-15T00:12:48;26.20;;;10.30;;
6642;SDS011;3357;48.050;7.800;2024-01-15T00:15:13;22.70;;;9.20;;
6642;SDS011;3357;48.050;7.800;2024-01-15T00:17:38;21.50;;;9.10;;
6642;SDS011;3357;48.050;7.800;2024-01-15T00:20:04;24.47;;;9.60;;
6642;SDS011;3357;48.050;7.800;2024-01-15T00:22:30;20.83;;;8.60;;
6642;SDS011;3357;48.050;7.800;2024-01-15T00:24:55;24.57;;;8.97;;
6642;SDS011;3357;48.050;7.800;2024-01-15T00:27:21;26.70;;;10.33;;
6642;SDS011;3357;48.050;7.800;2024-01-15T00:29:46;25.07;;;9.23;;
6642;SDS011;3357;48.050;7.800;2024-01-15T00:32:12;21.53;;;8.20;;
6642;SDS011;3357;48.050;7.800;2024-01-15T00:34:37;21.43;;;9.57;;
6642;SDS011;3357;48.050;7.800;2024-01-15T00:37:02;28.93;;;9.43;;
6642;SDS011;3357;48.050;7.800;2024-01-15T00:39:28;25.33;;;9.50;;
6642;SDS011;3357;48.050;7.800;2024-01-15T00:41:53;22.47;;;8.93;;
6642;SDS011;3357;48.050;7.800;2024-01-15T00:44:19;22.53;;;10.27;;
6642;SDS011;3357;48.050;7.800;2024-01-15T00:46:44;22.90;;;8.90;;
6642;SDS011;3357;48.050;7.800;2024-01-15T00:49:10;20.70;;;9.10;;
6642;SDS011;3357;48.050;7.800;2024-01-15T00:51:36;21.33;;;8.90;;
6642;SDS011;3357;48.050;7.800;2024-01-15T00:54:02;25.90;;;10.83;;
6642;SDS011;3357;48.050;7.800;2024-01-15T00:56:27;19.30;;;8.67;;
6642;SDS011;3357;48.050;7.800;2024-01-15T00:58:52;20.23;;;9.10;;
6642;SDS011;3357;48.050;7.800;2024-01-15T01:01:17;22.50;;;9.20;;
6642;SDS011;3357;48.050;7.800;2024-01-15T01:03:43;23.27;;;9.00;;
6642;SDS011;3357;48.050;7.800;2024-01-15T01:06:08;21.90;;;9.67;;
6642;SDS011;3357;48.050;7.800;2024-01-15T01:08:33;27.13;;;9.27;;
6642;SDS011;3357;48.050;7.800;2024-01-15T01:10:58;25.17;;;10.20;;
6642;SDS011;3357;48.050;7.800;2024-01-15T01:13:24;26.53;;;10.27;;
6642;SDS011;3357;48.050;7.800;2024-01-15T01:15:49;24.27;;;9.80;;
6642;SDS011;3357;48.050;7.800;2024-01-15T01:18:14;26.40;;;10.47;;
6642;SDS011;3357;48.050;7.800;2024-01-15T01:20:39;28.83;;;11.10;;
6642;SDS011;3357;48.050;7.800;2024-01-15T01:23:05;23.63;;;10.20;;
6642;SDS011;3357;48.050;7.800;2024-01-15T01:25:30;27.80;;;10.50;;
6642;SDS011;3357;48.050;7.800;2024-01-15T01:27:55;34.23;;;11.13;;
6642;SDS011;3357;48.050;7.800;2024-01-15T01:30:21;32.63;;;12.27;;
6642;SDS011;3357;48.050;7.800;2024-01-15T01:32:46;23.40;;;10.60;;
6642;SDS011;3357;48.050;7.800;2024-01-15T01:35:12;30.50;;;11.30;;
6642;SDS011;3357;48.050;7.800;2024-01-15T01:37:37;31.00;;;10.77;;
6642;SDS011;3357;48.050;7.800;2024-01-15T01:40:03;27.87;;;10.17;;
6642;SDS011;3357;48.050;7.800;2024-01-15T01:42:28;27.13;;;12.00;;
6642;SDS011;3357;48.050;7.800;2024-01-15T01:44:53;35.70;;;12.90;;
6642;SDS011;3357;48.050;7.800;2024-01-15T01:47:19;24.83;;;11.73;;
6642;SDS011;3357;48.050;7.800;2024-01-15T01:49:44;27.23;;;10.70;;
6642;SDS011;3357;48.050;7.800;2024-01-15T01:52:10;28.70;;;11.60;;
6642;SDS011;3357;48.050;7.800;2024-01-15T01:54:36;29.40;;;11.60;;
6642;SDS011;3357;48.050;7.800;2024-01-15T01:57:02;23.43;;;10.30;;
6642;SDS011;3357;48.050;7.800;2024-01-15T01:59:28;28.20;;;10.20;;
6642;SDS011;3357;48.050;7.800;2024-01-15T02:01:55;27.53;;;10.53;;
6642;SDS011;3357;48.050;7.800;2024-01-15T02:04:21;26.80;;;11.30;;
6642;SDS011;3357;48.050;7.800;2024-01-15T02:06:47;32.57;;;11.40;;
6642;SDS011;3357;48.050;7.800;2024-01-15T02:09:12;24.80;;;10.70;;
6642;SDS011;3357;48.050;7.800;2024-01-15T02:11:40;33.87;;;11.77;;
6642;SDS011;3357;48.050;7.800;2024-01-15T02:14:06;27.00;;;11.20;;
6642;SDS011;3357;48.050;7.800;2024-01-15T02:16:31;25.73;;;10.30;;
6642;SDS011;3357;48.050;7.800;2024-01-15T02:18:56;29.37;;;11.27;;
6642;SDS011;3357;48.050;7.800;2024-01-15T02:21:21;28.50;;;10.30;;
6642;SDS011;3357;48.050;7.800;2024-01-15T02:23:47;27.70;;;11.63;;
6642;SDS011;3357;48.050;7.800;2024-01-15T02:26:12;32.87;;;13.07;;
6642;SDS011;3357;48.050;7.800;2024-01-15T02:28:37;28.77;;;10.83;;
6642;SDS011;3357;48.050;7.800;2024-01-15T02:31:03;30.60;;;11.10;;
6642;SDS011;3357;48.050;7.800;2024-01-15T02:33:28;31.80;;;10.60;;
6642;SDS011;3357;48.050;7.800;2024-01-15T02:35:53;31.10;;;11.17;;
6642;SDS011;3357;48.050;7.800;2024-01-15T02:38:18;31.57;;;11.60;;
6642;SDS011;3357;48.050;7.800;2024-01-15T02:40:44;35.50;;;11.70;;
6642;SDS011;3357;48.050;7.800;2024-01-15T02:43:10;29.50;;;12.23;;
6642;SDS011;3357;48.050;7.800;2024-01-15T02:45:35;25.13;;;10.70;;
6642;SDS011;3357;48.050;7.800;2024-01-15T02:48:00;31.33;;;11.50;;
6642;SDS011;3357;48.050;7.800;2024-01-15T02:50:25;25.50;;;10.47;;
6642;SDS011;3357;48.050;7.800;2024-01-15T02:52:51;37.37;;;11.57;;
6642;SDS011;3357;48.050;7.800;2024-01-15T02:55:16;30.20;;;12.30;;
6642;SDS011;3357;48.050;7.800;2024-01-15T02:57:42;28.37;;;12.23;;
6642;SDS011;3357;48.050;7.800;2024-01-15T03:00:07;32.50;;;11.90;;
6642;SDS011;3357;48.050;7.800;2024-01-15T03:02:35;31.80;;;10.97;;
6642;SDS011;3357;48.050;7.800;2024-01-15T03:05:02;30.20;;;12.60;;
6642;SDS011;3357;48.050;7.800;2024-01-15T03:07:27;29.17;;;11.87;;
6642;SDS011;3357;48.050;7.800;2024-01-15T03:09:53;30.47;;;12.23;;
6642;SDS011;3357;48.050;7.800;2024-01-15T03:12:18;28.23;;;10.90;;
6642;SDS011;3357;48.050;7.800;2024-01-15T03:14:43;24.70;;;11.77;;
6642;SDS011;3357;48.050;7.800;2024-01-15T03:17:09;32.90;;;13.17;;
6642;SDS011;3357;48.050;7.800;2024-01-15T03:19:35;24.57;;;10.53;;
6642;SDS011;3357;48.050;7.800;2024-01-15T03:22:00;29.40;;;12.20;;
6642;SDS011;3357;48.050;7.800;2024-01-15T03:24:27;35.73;;;12.97;;
6642;SDS011;3357;48.050;7.800;2024-01-15T03:26:52;31.80;;;12.10;;
6642;SDS011;3357;48.050;7.800;2024-01-15T03:29:18;31.40;;;12.17;;
6642;SDS011;3357;48.050;7.800;2024-01-15T03:31:43;29.03;;;12.37;;
6642;SDS011;3357;48.050;7.800;2024-01-15T03:34:08;27.50;;;12.30;;
6642;SDS011;3357;48.050;7.800;2024-01-15T03:36:33;33.20;;;12.27;;
6642;SDS011;3357;48.050;7.800;2024-01-15T03:38:59;31.20;;;11.67;;
6642;SDS011;3357;48.050;7.800;2024-01-15T03:41:24;37.07;;;13.60;;
6642;SDS011;3357;48.050;7.800;2024-01-15T03:43:49;30.67;;;11.47;;
6642;SDS011;3357;48.050;7.800;2024-01-15T03:46:14;30.83;;;11.80;;
6642;SDS011;3357;48.050;7.800;2024-01-15T03:48:40;39.13;;;14.27;;
6642;SDS011;3357;48.050;7.800;2024-01-15T03:51:05;38.63;;;14.37;;
6642;SDS011;3357;48.050;7.800;2024-01-15T03:53:30;33.70;;;12.90;;
6642;SDS011;3357;48.050;7.800;2024-01-15T03:55:56;35.67;;;12.77;;
6642;SDS011;3357;48.050;7.800;2024-01-15T03:58:21;36.23;;;13.90;;
6642;SDS011;3357;48.050;7.800;2024-01-15T04:00:46;38.37;;;14.00;;
6642;SDS011;3357;48.050;7.800;2024-01-15T04:03:11;37.87;;;12.60;;
6642;SDS011;3357;48.050;7.800;2024-01-15T04:05:37;37.53;;;13.10;;
6642;SDS011;3357;48.050;7.800;2024-01-15T04:08:03;32.50;;;12.13;;
6642;SDS011;3357;48.050;7.800;2024-01-15T04:10:28;35.37;;;12.40;;
6642;SDS011;3357;48.050;7.800;2024-01-15T04:12:54;32.23;;;13.37;;
6642;SDS011;3357;48.050;7.800;2024-01-15T04:15:19;33.43;;;12.90;;
6642;SDS011;3357;48.050;7.800;2024-01-15T04:17:44;39.10;;;13.30;;
6642;SDS011;3357;48.050;7.800;2024-01-15T04:20:10;32.60;;;12.67;;
6642;SDS011;3357;48.050;7.800;2024-01-15T04:22:36;33.00;;;13.03;;
6642;SDS011;3357;48.050;7.800;2024-01-15T04:25:01;34.60;;;12.70;;
6642;SDS011;3357;48.050;7.800;2024-01-15T04:27:27;36.50;;;13.67;;
6642;SDS011;3357;48.050;7.800;2024-01-15T04:29:52;34.87;;;13.57;;
6642;SDS011;3357;48.050;7.800;2024-01-15T04:32:18;34.23;;;13.07;;
6642;SDS011;3357;48.050;7.800;2024-01-15T04:34:43;36.60;;;12.73;;
6642;SDS011;3357;48.050;7.800;2024-01-15T04:37:09;30.47;;;12.90;;
6642;SDS011;3357;48.050;7.800;2024-01-15T04:39:34;34.47;;;12.77;;
6642;SDS011;3357;48.050;7.800;2024-01-15T04:41:59;33.50;;;13.10;;
6642;SDS011;3357;48.050;7.800;2024-01-15T04:44:24;35.33;;;13.63;;
6642;SDS011;3357;48.050;7.800;2024-01-15T04:46:50;37.40;;;13.47;;
6642;SDS011;3357;48.050;7.800;2024-01-15T04:49:15;42.27;;;13.40;;
6642;SDS011;3357;48.050;7.800;2024-01-15T04:51:40;34.77;;;13.50;;
6642;SDS011;3357;48.050;7.800;2024-01-15T04:54:05;35.60;;;12.90;;
6642;SDS011;3357;48.050;7.800;2024-01-15T04:56:31;36.40;;;12.70;;
6642;SDS011;3357;48.050;7.800;2024-01-15T04:58:56;37.13;;;13.60;;
6642;SDS011;3357;48.050;7.800;2024-01-15T05:01:22;36.17;;;13.73;;
6642;SDS011;3357;48.050;7.800;2024-01-15T05:03:47;34.90;;;13.23;;
6642;SDS011;3357;48.050;7.800;2024-01-15T05:06:12;37.97;;;13.73;;
6642;SDS011;3357;48.050;7.800;2024-01-15T05:08:37;37.33;;;13.87;;
6642;SDS011;3357;48.050;7.800;2024-01-15T05:11:03;39.87;;;13.93;;
6642;SDS011;3357;48.050;7.800;2024-01-15T05:13:28;33.83;;;13.83;;
6642;SDS011;3357;48.050;7.800;2024-01-15T05:15:53;40.00;;;13.97;;
6642;SDS011;3357;48.050;7.800;2024-01-15T05:18:19;35.37;;;12.53;;
6642;SDS011;3357;48.050;7.800;2024-01-15T05:20:44;37.37;;;13.30;;
6642;SDS011;3357;48.050;7.800;2024-01-15T05:23:09;37.97;;;13.23;;
6642;SDS011;3357;48.050;7.800;2024-01-15T05:25:35;34.90;;;12.97;;
6642;SDS011;3357;48.050;7.800;2024-01-15T05:28:00;27.60;;;11.97;;
6642;SDS011;3357;48.050;7.800;2024-01-15T05:30:26;30.70;;;12.30;;
6642;SDS011;3357;48.050;7.800;2024-01-15T05:32:51;36.60;;;12.90;;
6642;SDS011;3357;48.050;7.800;2024-01-15T05:35:16;32.00;;;13.27;;
6642;SDS011;3357;48.050;7.800;2024-01-15T05:37:43;33.10;;;13.37;;
6642;SDS011;3357;48.050;7.800;2024-01-15T05:40:10;32.63;;;12.27;;
6642;SDS011;3357;48.050;7.800;2024-01-15T05:42:36;31.00;;;12.07;;
6642;SDS011;3357;48.050;7.800;2024-01-15T05:45:01;29.30;;;11.70;;
6642;SDS011;3357;48.050;7.800;2024-01-15T05:47:29;34.47;;;12.57;;
6642;SDS011;3357;48.050;7.800;2024-01-15T05:49:54;31.23;;;11.87;;
6642;SDS011;3357;48.050;7.800;2024-01-15T05:52:20;38.17;;;12.03;;
6642;SDS011;3357;48.050;7.800;2024-01-15T05:54:46;33.97;;;12.00;;
6642;SDS011;3357;48.050;7.800;2024-01-15T05:57:12;32.80;;;11.33;;
6642;SDS011;3357;48.050;7.800;2024-01-15T05:59:37;32.93;;;12.73;;
6642;SDS011;3357;48.050;7.800;2024-01-15T06:02:02;37.03;;;11.90;;
6642;SDS011;3357;48.050;7.800;2024-01-15T06:04:28;37.13;;;13.37;;
6642;SDS011;3357;48.050;7.800;2024-01-15T06:06:53;30.10;;;11.70;;
6642;SDS011;3357;48.050;7.800;2024-01-15T06:09:18;29.90;;;12.23;;
6642;SDS011;3357;48.050;7.800;2024-01-15T06:11:43;37.73;;;12.90;;
6642;SDS011;3357;48.050;7.800;2024-01-15T06:14:09;36.63;;;12.20;;
6642;SDS011;3357;48.050;7.800;2024-01-15T06:16:34;39.53;;;13.30;;
6642;SDS011;3357;48.050;7.800;2024-01-15T06:18:59;39.90;;;15.03;;
6642;SDS011;3357;48.050;7.800;2024-01-15T06:21:24;39.17;;;13.33;;
6642;SDS011;3357;48.050;7.800;2024-01-15T06:23:50;34.63;;;12.83;;
6642;SDS011;3357;48.050;7.800;2024-01-15T06:26:15;39.93;;;14.03;;
6642;SDS011;3357;48.050;7.800;2024-01-15T06:28:40;35.17;;;12.50;;
6642;SDS011;3357;48.050;7.800;2024-01-15T06:31:06;36.87;;;13.40;;
6642;SDS011;3357;48.050;7.800;2024-01-15T06:33:32;38.90;;;13.27;;
6642;SDS011;3357;48.050;7.800;2024-01-15T06:35:57;34.23;;;12.30;;
6642;SDS011;3357;48.050;7.800;2024-01-15T06:38:22;40.67;;;12.83;;
6642;SDS011;3357;48.050;7.800;2024-01-15T06:40:48;35.30;;;10.77;;
6642;SDS011;3357;48.050;7.800;2024-01-15T06:43:14;31.10;;;12.20;;
6642;SDS011;3357;48.050;7.800;2024-01-15T06:45:40;36.83;;;12.97;;
6642;SDS011;3357;48.050;7.800;2024-01-15T06:48:06;35.83;;;13.80;;
6642;SDS011;3357;48.050;7.800;2024-01-15T06:50:32;32.40;;;12.23;;
6642;SDS011;3357;48.050;7.800;2024-01-15T06:52:57;31.37;;;11.77;;
6642;SDS011;3357;48.050;7.800;2024-01-15T06:55:23;40.60;;;13.60;;
6642;SDS011;3357;48.050;7.800;2024-01-15T06:57:48;31.50;;;11.00;;
6642;SDS011;3357;48.050;7.800;2024-01-15T07:00:14;32.50;;;11.10;;
6642;SDS011;3357;48.050;7.800;2024-01-15T07:02:39;27.70;;;11.27;;
6642;SDS011;3357;48.050;7.800;2024-01-15T07:05:05;31.10;;;10.80;;
6642;SDS011;3357;48.050;7.800;2024-01-15T07:07:30;35.07;;;11.23;;
6642;SDS011;3357;48.050;7.800;2024-01-15T07:09:56;29.23;;;10.50;;
6642;SDS011;3357;48.050;7.800;2024-01-15T07:12:21;28.10;;;10.90;;
6642;SDS011;3357;48.050;7.800;2024-01-15T07:14:47;31.10;;;10.70;;
6642;SDS011;3357;48.050;7.800;2024-01-15T07:17:12;34.40;;;11.00;;
6642;SDS011;3357;48.050;7.800;2024-01-15T07:19:37;26.93;;;11.00;;
6642;SDS011;3357;48.050;7.800;2024-01-15T07:22:02;23.70;;;9.87;;
6642;SDS011;3357;48.050;7.800;2024-01-15T07:24:28;28.43;;;10.63;;
6642;SDS011;3357;48.050;7.800;2024-01-15T07:26:53;27.50;;;9.40;;
6642;SDS011;3357;48.050;7.800;2024-01-15T07:29:18;24.17;;;8.40;;
6642;SDS011;3357;48.050;7.800;2024-01-15T07:31:47;22.80;;;8.73;;
6642;SDS011;3357;48.050;7.800;2024-01-15T07:34:14;23.70;;;9.10;;
6642;SDS011;3357;48.050;7.800;2024-01-15T07:36:39;28.97;;;8.90;;
6642;SDS011;3357;48.050;7.800;2024-01-15T07:39:04;19.47;;;8.00;;
6642;SDS011;3357;48.050;7.800;2024-01-15T07:41:30;18.87;;;8.23;;
6642;SDS011;3357;48.050;7.800;2024-01-15T07:43:55;17.57;;;7.60;;
6642;SDS011;3357;48.050;7.800;2024-01-15T07:46:20;18.97;;;7.63;;
6642;SDS011;3357;48.050;7.800;2024-01-15T07:48:45;21.93;;;8.20;;
6642;SDS011;3357;48.050;7.800;2024-01-15T07:51:11;23.30;;;8.37;;
6642;SDS011;3357;48.050;7.800;2024-01-15T07:53:36;18.17;;;7.57;;
6642;SDS011;3357;48.050;7.800;2024-01-15T07:56:01;18.17;;;7.87;;
6642;SDS011;3357;48.050;7.800;2024-01-15T07:58:27;18.43;;;6.83;;
6642;SDS011;3357;48.050;7.800;2024-01-15T08:00:52;14.43;;;6.20;;
6642;SDS011;3357;48.050;7.800;2024-01-15T08:03:17;18.73;;;6.60;;
6642;SDS011;3357;48.050;7.800;2024-01-15T08:05:42;20.20;;;7.37;;
6642;SDS011;3357;48.050;7.800;2024-01-15T08:08:08;22.53;;;7.90;;
6642;SDS011;3357;48.050;7.800;2024-01-15T08:10:33;17.40;;;6.27;;
6642;SDS011;3357;48.050;7.800;2024-01-15T08:12:58;20.17;;;7.73;;
6642;SDS011;3357;48.050;7.800;2024-01-15T08:15:23;14.00;;;6.17;;
6642;SDS011;3357;48.050;7.800;2024-01-15T08:17:49;15.10;;;6.03;;
6642;SDS011;3357;48.050;7.800;2024-01-15T08:20:15;16.20;;;5.80;;
6642;SDS011;3357;48.050;7.800;2024-01-15T08:22:41;12.20;;;5.30;;
6642;SDS011;3357;48.050;7.800;2024-01-15T08:25:06;15.63;;;6.50;;
6642;SDS011;3357;48.050;7.800;2024-01-15T08:27:32;13.57;;;6.10;;
6642;SDS011;3357;48.050;7.800;2024-01-15T08:30:00;8.80;;;5.03;;
6642;SDS011;3357;48.050;7.800;2024-01-15T08:32:26;11.67;;;5.57;;
6642;SDS011;3357;48.050;7.800;2024-01-15T08:34:51;14.67;;;5.70;;
6642;SDS011;3357;48.050;7.800;2024-01-15T08:37:17;12.47;;;5.10;;
6642;SDS011;3357;48.050;7.800;2024-01-15T08:39:43;14.07;;;5.20;;
6642;SDS011;3357;48.050;7.800;2024-01-15T08:42:09;11.37;;;5.07;;
6642;SDS011;3357;48.050;7.800;2024-01-15T08:44:34;9.77;;;4.83;;
6642;SDS011;3357;48.050;7.800;2024-01-15T08:46:59;9.97;;;4.57;;
6642;SDS011;3357;48.050;7.800;2024-01-15T08:49:25;9.43;;;4.33;;
6642;SDS011;3357;48.050;7.800;2024-01-15T08:51:50;7.40;;;4.27;;
6642;SDS011;3357;48.050;7.800;2024-01-15T08:54:15;7.97;;;3.67;;
6642;SDS011;3357;48.050;7.800;2024-01-15T08:56:41;11.83;;;4.17;;
6642;SDS011;3357;48.050;7.800;2024-01-15T08:59:06;8.23;;;3.27;;
6642;SDS011;3357;48.050;7.800;2024-01-15T09:01:31;4.83;;;3.30;;
6642;SDS011;3357;48.050;7.800;2024-01-15T09:03:57;9.67;;;3.60;;
6642;SDS011;3357;48.050;7.800;2024-01-15T09:06:22;10.63;;;4.40;;
6642;SDS011;3357;48.050;7.800;2024-01-15T09:08:47;12.40;;;4.90;;
6642;SDS011;3357;48.050;7.800;2024-01-15T09:11:12;6.67;;;3.73;;
6642;SDS011;3357;48.050;7.800;2024-01-15T09:13:38;10.17;;;4.03;;
6642;SDS011;3357;48.050;7.800;2024-01-15T09:16:03;8.20;;;3.80;;
6642;SDS011;3357;48.050;7.800;2024-01-15T09:18:29;9.40;;;4.53;;
6642;SDS011;3357;48.050;7.800;2024-01-15T09:20:54;9.90;;;4.50;;
6642;SDS011;3357;48.050;7.800;2024-01-15T09:23:20;10.00;;;4.70;;
6642;SDS011;3357;48.050;7.800;2024-01-15T09:25:45;10.33;;;4.40;;
6642;SDS011;3357;48.050;7.800;2024-01-15T09:28:10;12.40;;;5.30;;
6642;SDS011;3357;48.050;7.800;2024-01-15T09:30:35;11.43;;;5.07;;
6642;SDS011;3357;48.050;7.800;2024-01-15T09:33:01;9.80;;;5.47;;
6642;SDS011;3357;48.050;7.800;2024-01-15T09:35:26;13.50;;;5.60;;
6642;SDS011;3357;48.050;7.800;2024-01-15T09:37:52;12.50;;;5.27;;
6642;SDS011;3357;48.050;7.800;2024-01-15T09:40:17;13.30;;;6.67;;
6642;SDS011;3357;48.050;7.800;2024-01-15T09:42:43;10.00;;;5.07;;
6642;SDS011;3357;48.050;7.800;2024-01-15T09:45:08;13.00;;;5.50;;
6642;SDS011;3357;48.050;7.800;2024-01-15T09:47:35;13.67;;;6.47;;
6642;SDS011;3357;48.050;7.800;2024-01-15T09:50:00;12.87;;;5.93;;
6642;SDS011;3357;48.050;7.800;2024-01-15T09:52:28;15.40;;;7.17;;
6642;SDS011;3357;48.050;7.800;2024-01-15T09:54:55;13.93;;;6.23;;
6642;SDS011;3357;48.050;7.800;2024-01-15T09:57:21;15.80;;;6.90;;
6642;SDS011;3357;48.050;7.800;2024-01-15T09:59:46;15.27;;;6.73;;
6642;SDS011;3357;48.050;7.800;2024-01-15T10:02:12;14.30;;;6.53;;
6642;SDS011;3357;48.050;7.800;2024-01-15T10:04:39;16.57;;;6.60;;
6642;SDS011;3357;48.050;7.800;2024-01-15T10:07:04;21.80;;;7.90;;
6642;SDS011;3357;48.050;7.800;2024-01-15T10:09:30;16.53;;;6.50;;
6642;SDS011;3357;48.050;7.800;2024-01-15T10:11:55;15.77;;;6.90;;
6642;SDS011;3357;48.050;7.800;2024-01-15T10:14:20;14.93;;;6.30;;
6642;SDS011;3357;48.050;7.800;2024-01-15T10:16:46;18.90;;;7.17;;
6642;SDS011;3357;48.050;7.800;2024-01-15T10:19:11;15.73;;;7.70;;
6642;SDS011;3357;48.050;7.800;2024-01-15T10:21:36;15.13;;;7.07;;
6642;SDS011;3357;48.050;7.800;2024-01-15T10:24:02;17.40;;;7.43;;
6642;SDS011;3357;48.050;7.800;2024-01-15T10:26:28;18.00;;;7.53;;
6642;SDS011;3357;48.050;7.800;2024-01-15T10:28:54;15.53;;;6.83;;
6642;SDS011;3357;48.050;7.800;2024-01-15T10:31:19;17.67;;;7.50;;
6642;SDS011;3357;48.050;7.800;2024-01-15T10:33:46;19.80;;;7.93;;
6642;SDS011;3357;48.050;7.800;2024-01-15T10:36:12;19.03;;;7.77;;
6642;SDS011;3357;48.050;7.800;2024-01-15T10:38:38;17.40;;;7.03;;
6642;SDS011;3357;48.050;7.800;2024-01-15T10:41:03;20.37;;;7.40;;
6642;SDS011;3357;48.050;7.800;2024-01-15T10:43:29;14.40;;;7.27;;
6642;SDS011;3357;48.050;7.800;2024-01-15T10:45:54;20.63;;;7.73;;
6642;SDS011;3357;48.050;7.800;2024-01-15T10:48:20;15.43;;;7.17;;
6642;SDS011;3357;48.050;7.800;2024-01-15T10:50:45;23.27;;;8.23;;
6642;SDS011;3357;48.050;7.800;2024-01-15T10:53:12;15.00;;;8.33;;
6642;SDS011;3357;48.050;7.800;2024-01-15T10:55:39;21.93;;;8.43;;
6642;SDS011;3357;48.050;7.800;2024-01-15T10:58:07;21.37;;;8.30;;
6642;SDS011;3357;48.050;7.800;2024-01-15T11:00:33;17.47;;;7.53;;
6642;SDS011;3357;48.050;7.800;2024-01-15T11:02:59;15.80;;;7.23;;
6642;SDS011;3357;48.050;7.800;2024-01-15T11:05:28;17.10;;;7.77;;
6642;SDS011;3357;48.050;7.800;2024-01-15T11:07:56;16.73;;;7.80;;
6642;SDS011;3357;48.050;7.800;2024-01-15T11:10:41;16.93;;;6.50;;
6642;SDS011;3357;48.050;7.800;2024-01-15T11:13:08;17.00;;;8.00;;
6642;SDS011;3357;48.050;7.800;2024-01-15T11:15:54;16.57;;;7.70;;
6642;SDS011;3357;48.050;7.800;2024-01-15T11:18:19;19.07;;;7.87;;
6642;SDS011;3357;48.050;7.800;2024-01-15T11:23:55;15.93;;;7.33;;
6642;SDS011;3357;48.050;7.800;2024-01-15T11:29:10;14.93;;;6.60;;
6642;SDS011;3357;48.050;7.800;2024-01-15T11:34:20;18.33;;;8.40;;
6642;SDS011;3357;48.050;7.800;2024-01-15T11:41:53;17.67;;;7.70;;
6642;SDS011;3357;48.050;7.800;2024-01-15T11:44:20;19.27;;;7.13;;
6642;SDS011;3357;48.050;7.800;2024-01-15T11:46:47;16.93;;;6.97;;
6642;SDS011;3357;48.050;7.800;2024-01-15T11:49:24;14.73;;;7.40;;
6642;SDS011;3357;48.050;7.800;2024-01-15T11:52:19;17.47;;;7.60;;
6642;SDS011;3357;48.050;7.800;2024-01-15T11:54:48;17.87;;;7.33;;
6642;SDS011;3357;48.050;7.800;2024-01-15T12:00:19;12.70;;;6.87;;
6642;SDS011;3357;48.050;7.800;2024-01-15T12:02:46;20.17;;;7.73;;
6642;SDS011;3357;48.050;7.800;2024-01-15T12:05:13;16.50;;;7.00;;
6642;SDS011;3357;48.050;7.800;2024-01-15T12:07:39;21.33;;;9.00;;
6642;SDS011;3357;48.050;7.800;2024-01-15T12:10:12;17.67;;;7.83;;
6642;SDS011;3357;48.050;7.800;2024-01-15T12:15:22;17.07;;;7.50;;
6642;SDS011;3357;48.050;7.800;2024-01-15T12:17:48;15.90;;;7.40;;
6642;SDS011;3357;48.050;7.800;2024-01-15T12:20:13;18.40;;;7.47;;
6642;SDS011;3357;48.050;7.800;2024-01-15T12:22:40;18.47;;;7.13;;
6642;SDS011;3357;48.050;7.800;2024-01-15T12:25:06;16.63;;;7.60;;
6642;SDS011;3357;48.050;7.800;2024-01-15T12:27:31;15.47;;;6.33;;
6642;SDS011;3357;48.050;7.800;2024-01-15T12:29:57;16.33;;;7.63;;
6642;SDS011;3357;48.050;7.800;2024-01-15T12:32:23;16.10;;;6.87;;
6642;SDS011;3357;48.050;7.800;2024-01-15T12:34:49;14.10;;;6.40;;
6642;SDS011;3357;48.050;7.800;2024-01-15T12:37:17;20.30;;;6.93;;
6642;SDS011;3357;48.050;7.800;2024-01-15T12:39:43;14.27;;;6.30;;
6642;SDS011;3357;48.050;7.800;2024-01-15T12:42:09;15.83;;;7.23;;
6642;SDS011;3357;48.050;7.800;2024-01-15T12:44:35;15.13;;;6.70;;
6642;SDS011;3357;48.050;7.800;2024-01-15T12:47:00;13.23;;;6.00;;
6642;SDS011;3357;48.050;7.800;2024-01-15T12:49:26;14.57;;;6.60;;
6642;SDS011;3357;48.050;7.800;2024-01-15T12:51:56;13.93;;;6.33;;
6642;SDS011;3357;48.050;7.800;2024-01-15T12:54:22;13.47;;;6.40;;
6642;SDS011;3357;48.050;7.800;2024-01-15T12:56:48;12.93;;;7.20;;
6642;SDS011;3357;48.050;7.800;2024-01-15T12:59:13;14.20;;;6.70;;
6642;SDS011;3357;48.050;7.800;2024-01-15T13:01:39;22.30;;;7.33;;
6642;SDS011;3357;48.050;7.800;2024-01-15T13:04:05;17.50;;;7.33;;
6642;SDS011;3357;48.050;7.800;2024-01-15T13:06:33;17.40;;;6.93;;
6642;SDS011;3357;48.050;7.800;2024-01-15T13:08:59;14.70;;;6.90;;
6642;SDS011;3357;48.050;7.800;2024-01-15T13:11:24;16.07;;;6.27;;
6642;SDS011;3357;48.050;7.800;2024-01-15T13:13:49;17.17;;;6.57;;
6642;SDS011;3357;48.050;7.800;2024-01-15T13:16:14;13.10;;;6.53;;
6642;SDS011;3357;48.050;7.800;2024-01-15T13:18:40;14.00;;;6.50;;
6642;SDS011;3357;48.050;7.800;2024-01-15T13:21:06;13.03;;;6.63;;
6642;SDS011;3357;48.050;7.800;2024-01-15T13:23:31;13.97;;;6.40;;
6642;SDS011;3357;48.050;7.800;2024-01-15T13:25:56;15.03;;;6.30;;
6642;SDS011;3357;48.050;7.800;2024-01-15T13:28:23;14.70;;;6.00;;
6642;SDS011;3357;48.050;7.800;2024-01-15T13:30:48;9.63;;;5.30;;
6642;SDS011;3357;48.050;7.800;2024-01-15T13:33:13;12.37;;;6.07;;
6642;SDS011;3357;48.050;7.800;2024-01-15T13:35:39;12.73;;;6.10;;
6642;SDS011;3357;48.050;7.800;2024-01-15T13:38:04;13.30;;;6.10;;
6642;SDS011;3357;48.050;7.800;2024-01-15T13:40:29;10.30;;;5.37;;
6642;SDS011;3357;48.050;7.800;2024-01-15T13:42:54;11.03;;;5.30;;
6642;SDS011;3357;48.050;7.800;2024-01-15T13:45:20;10.10;;;5.40;;
6642;SDS011;3357;48.050;7.800;2024-01-15T13:47:45;9.23;;;5.00;;
6642;SDS011;3357;48.050;7.800;2024-01-15T13:50:11;9.30;;;4.90;;
6642;SDS011;3357;48.050;7.800;2024-01-15T13:52:36;6.63;;;4.17;;
6642;SDS011;3357;48.050;7.800;2024-01-15T13:55:02;8.10;;;4.17;;
6642;SDS011;3357;48.050;7.800;2024-01-15T13:57:27;6.33;;;4.37;;
6642;SDS011;3357;48.050;7.800;2024-01-15T13:59:52;9.00;;;4.27;;
6642;SDS011;3357;48.050;7.800;2024-01-15T14:02:18;10.83;;;5.50;;
6642;SDS011;3357;48.050;7.800;2024-01-15T14:04:43;18.30;;;7.20;;
6642;SDS011;3357;48.050;7.800;2024-01-15T14:07:08;14.20;;;7.10;;
6642;SDS011;3357;48.050;7.800;2024-01-15T14:09:33;18.13;;;7.20;;
6642;SDS011;3357;48.050;7.800;2024-01-15T14:11:59;11.93;;;6.50;;
6642;SDS011;3357;48.050;7.800;2024-01-15T14:14:24;15.70;;;6.27;;
6642;SDS011;3357;48.050;7.800;2024-01-15T14:16:50;12.37;;;5.17;;
6642;SDS011;3357;48.050;7.800;2024-01-15T14:19:15;13.17;;;6.17;;
6642;SDS011;3357;48.050;7.800;2024-01-15T14:21:40;12.90;;;5.70;;
6642;SDS011;3357;48.050;7.800;2024-01-15T14:24:06;12.50;;;4.77;;
6642;SDS011;3357;48.050;7.800;2024-01-15T14:26:31;11.03;;;5.97;;
6642;SDS011;3357;48.050;7.800;2024-01-15T14:28:56;11.10;;;5.87;;
6642;SDS011;3357;48.050;7.800;2024-01-15T14:31:23;8.73;;;5.33;;
6642;SDS011;3357;48.050;7.800;2024-01-15T14:33:51;12.40;;;5.60;;
6642;SDS011;3357;48.050;7.800;2024-01-15T14:36:16;11.43;;;5.03;;
6642;SDS011;3357;48.050;7.800;2024-01-15T14:38:41;11.57;;;5.93;;
6642;SDS011;3357;48.050;7.800;2024-01-15T14:41:07;13.60;;;6.50;;
6642;SDS011;3357;48.050;7.800;2024-01-15T14:43:32;10.60;;;6.00;;
6642;SDS011;3357;48.050;7.800;2024-01-15T14:45:58;16.77;;;7.37;;
6642;SDS011;3357;48.050;7.800;2024-01-15T14:48:23;18.37;;;7.73;;
6642;SDS011;3357;48.050;7.800;2024-01-15T14:50:48;19.03;;;7.70;;
6642;SDS011;3357;48.050;7.800;2024-01-15T14:53:15;18.13;;;7.83;;
6642;SDS011;3357;48.050;7.800;2024-01-15T14:55:42;15.43;;;8.10;;
6642;SDS011;3357;48.050;7.800;2024-01-15T14:58:07;17.53;;;8.23;;
6642;SDS011;3357;48.050;7.800;2024-01-15T15:00:32;19.30;;;8.50;;
6642;SDS011;3357;48.050;7.800;2024-01-15T15:02:58;15.60;;;7.67;;
6642;SDS011;3357;48.050;7.800;2024-01-15T15:05:24;21.60;;;8.90;;